Muniz Freire, Brazil
Current Conditions -  °F | °C
As of 12:00 AM on Thursday 23 Oct 2014 (Local Time) from SBVT Reporting Station
Broken Clouds Broken Clouds  
Wind Chill: 72°   Ceiling: 8000
Heat Index: 72°   Visibility: 6mi
Dew Point: 59°   Wind: 14mph
Humidity: 64%   Direction: 210°SSW
Pressure: 30.18"   Gusts: NA
Location:  20.46°S, 41.41°W
Report Text: SBVT 230200Z 21012KT 9999 SCT030 BKN080 22/15 Q1022
Loading
Personal Weather Stations






























Interactive Weather Map
Tropical Storm Tracking
New forecast layout! Learn more

10-Day Weather Forecast

Advertisements
Track Severe Weather on mobile